Time;durP1;ratioP1;P1;durP2;ratioP2;P2;SDS_P1;SDS_P2;PMS_P1;PMS_P2;Temp;Humidity;BMP_temperature;BMP_pressure;BME280_temperature;BME280_humidity;BME280_pressure;Samples;Min_cycle;Max_cycle;Signal;HPM_P1;HPM_P2
2021/08/26 00:05:40;;;;;;;29.75;17.45;;;;;;;8.04;74.89;96773.18;1664381;86;25717;-86
2021/08/26 00:06:25;;;;;;;26.82;18.05;;;;;;;8.01;74.89;96772.25;1651086;85;26465;-82
2021/08/26 00:08:53;;;;;;;28.32;17.80;;;;;;;7.97;74.85;96769.66;1664695;84;25394;-84
2021/08/26 00:11:24;;;;;;;28.40;16.90;;;;;;;7.95;75.01;96763.18;1664531;86;27519;-86
2021/08/26 00:13:53;;;;;;;28.27;16.48;;;;;;;7.99;75.17;96763.56;1664580;86;25769;-85
2021/08/26 00:16:25;;;;;;;25.37;16.93;;;;;;;8.00;75.27;96766.56;1664645;85;25729;-86
2021/08/26 00:18:52;;;;;;;25.23;16.77;;;;;;;8.04;75.19;96762.42;1664338;84;25808;-85
2021/08/26 00:21:19;;;;;;;25.17;15.65;;;;;;;8.06;75.19;96754.98;1664680;85;25263;-85
2021/08/26 00:23:45;;;;;;;29.72;17.50;;;;;;;8.07;75.12;96752.61;1664545;85;27482;-85
2021/08/26 00:26:12;;;;;;;28.90;16.77;;;;;;;8.08;75.25;96752.92;1665195;84;26011;-85
2021/08/26 00:28:40;;;;;;;26.57;16.32;;;;;;;8.05;75.25;96754.67;1664430;84;25709;-85
2021/08/26 00:31:06;;;;;;;29.23;17.40;;;;;;;8.06;75.38;96741.55;1664520;84;26720;-84
2021/08/26 00:33:33;;;;;;;26.97;16.85;;;;;;;8.02;75.34;96743.52;1664566;84;25717;-85
2021/08/26 00:35:59;;;;;;;31.55;17.87;;;;;;;8.04;75.34;96745.47;1680390;84;28141;-84
2021/08/26 00:38:26;;;;;;;30.43;16.77;;;;;;;8.03;75.40;96737.92;1666800;84;25864;-85
2021/08/26 00:40:59;;;;;;;26.62;17.05;;;;;;;8.04;75.44;96732.03;1664655;85;25799;-85
2021/08/26 00:43:31;;;;;;;27.52;17.25;;;;;;;8.05;75.49;96727.80;1664735;85;25785;-86
2021/08/26 00:45:58;;;;;;;28.17;17.25;;;;;;;8.02;75.52;96726.04;1664761;84;25828;-85
2021/08/26 00:48:26;;;;;;;31.12;18.27;;;;;;;8.05;75.49;96721.08;1664605;84;27473;-83
2021/08/26 00:50:57;;;;;;;26.05;15.98;;;;;;;8.06;75.37;96721.38;1664521;84;26435;-85
2021/08/26 00:53:26;;;;;;;25.45;16.12;;;;;;;8.02;75.29;96720.15;1664590;84;25808;-86
2021/08/26 00:55:53;;;;;;;29.23;16.27;;;;;;;7.93;75.38;96715.53;1664500;85;25836;-86
2021/08/26 00:58:20;;;;;;;28.52;15.35;;;;;;;7.94;75.56;96718.53;1664567;85;25761;-80
2021/08/26 01:00:51;;;;;;;25.48;15.68;;;;;;;7.98;75.60;96710.02;1664579;84;27395;-83
2021/08/26 01:03:22;;;;;;;28.52;15.58;;;;;;;7.94;75.62;96706.95;1663847;84;25782;-84
2021/08/26 01:05:55;;;;;;;24.20;15.93;;;;;;;7.92;75.44;96706.34;1664927;85;25362;-84
2021/08/26 01:08:42;;;;;;;26.25;15.50;;;;;;;7.92;75.44;96706.34;1664559;85;26291;-85
2021/08/26 01:11:10;;;;;;;27.05;16.07;;;;;;;7.91;75.87;96704.68;1663534;84;26345;-85
2021/08/26 01:13:41;;;;;;;26.65;15.48;;;;;;;7.88;75.94;96699.72;1664513;85;27374;-85
2021/08/26 01:16:10;;;;;;;23.80;14.23;;;;;;;7.80;75.98;96699.96;1664438;84;25765;-86
2021/08/26 01:18:41;;;;;;;23.22;14.05;;;;;;;7.82;76.14;96696.55;1664717;84;26427;-84
2021/08/26 01:21:14;;;;;;;23.35;14.23;;;;;;;7.80;76.08;96693.24;1663974;86;26562;-85
2021/08/26 01:23:44;;;;;;;23.30;14.47;;;;;;;7.80;76.13;96691.91;1664313;85;25816;-83
2021/08/26 01:26:19;;;;;;;25.37;14.55;;;;;;;7.75;76.15;96698.41;1665100;86;27651;-84
2021/08/26 01:28:49;;;;;;;23.55;15.13;;;;;;;7.71;76.08;96689.14;1664053;85;26663;-83
2021/08/26 01:31:20;;;;;;;26.62;14.53;;;;;;;7.63;76.18;96692.03;1664932;85;25761;-84
2021/08/26 01:33:56;;;;;;;28.38;14.70;;;;;;;7.59;76.36;96680.91;1664992;85;26594;-85
2021/08/26 01:36:32;;;;;;;24.20;14.85;;;;;;;7.58;76.43;96678.73;1649097;86;25796;-84
2021/08/26 01:39:09;;;;;;;25.12;15.38;;;;;;;7.62;76.58;96681.80;1665786;85;27465;-85
2021/08/26 01:41:54;;;;;;;28.80;14.95;;;;;;;7.63;76.54;96673.23;1680384;84;25816;-84
2021/08/26 01:44:26;;;;;;;23.47;14.05;;;;;;;7.62;76.56;96668.38;1665057;85;25780;-84
2021/08/26 01:46:58;;;;;;;22.50;13.65;;;;;;;7.56;76.67;96664.69;1664628;85;26514;-84
2021/08/26 01:49:25;;;;;;;29.12;16.17;;;;;;;7.47;76.73;96674.02;1665262;85;25812;-85
2021/08/26 01:51:52;;;;;;;22.13;14.63;;;;;;;7.41;77.03;96668.13;1665138;85;28219;-83
2021/08/26 01:54:18;;;;;;;21.82;14.13;;;;;;;7.35;77.04;96667.63;1666943;84;25323;-86
2021/08/26 01:56:45;;;;;;;26.17;14.38;;;;;;;7.37;77.21;96664.19;1665068;85;25726;-85
2021/08/26 01:59:11;;;;;;;26.00;15.00;;;;;;;7.39;77.25;96659.45;1669902;84;26414;-84
2021/08/26 02:01:39;;;;;;;25.90;14.95;;;;;;;7.42;77.30;96668.44;1665245;85;25712;-85
2021/08/26 02:04:05;;;;;;;24.87;15.30;;;;;;;7.43;77.43;96667.41;1665205;85;28278;-85
2021/08/26 02:06:32;;;;;;;26.07;14.35;;;;;;;7.39;77.37;96663.47;1665079;85;25988;-84
2021/08/26 02:08:59;;;;;;;22.85;13.25;;;;;;;7.38;77.38;96661.81;1665256;85;25780;-84
2021/08/26 02:11:25;;;;;;;26.95;13.95;;;;;;;7.34;77.50;96653.06;1665181;85;26523;-85
2021/08/26 02:13:52;;;;;;;22.67;13.10;;;;;;;7.30;77.54;96650.48;1665236;85;25835;-84
2021/08/26 02:16:19;;;;;;;25.17;14.53;;;;;;;7.31;77.63;96641.40;1665147;85;28209;-85
2021/08/26 02:18:46;;;;;;;22.90;13.62;;;;;;;7.30;77.66;96648.63;1669545;84;26700;-85
2021/08/26 02:21:13;;;;;;;23.55;13.25;;;;;;;7.29;77.73;96644.29;1672141;84;25720;-84
2021/08/26 02:23:39;;;;;;;26.65;14.55;;;;;;;7.32;77.79;96637.69;1672220;84;25790;-85
2021/08/26 02:26:06;;;;;;;25.62;15.93;;;;;;;7.35;77.84;96631.39;1672275;84;26342;-85
2021/08/26 02:28:33;;;;;;;28.15;14.65;;;;;;;7.36;77.76;96630.36;1672096;84;27544;-83
2021/08/26 02:31:00;;;;;;;24.05;13.93;;;;;;;7.37;77.88;96617.72;1672252;84;25701;-84
2021/08/26 02:33:27;;;;;;;22.52;13.72;;;;;;;7.33;77.82;96618.69;1672487;84;25739;-85
2021/08/26 02:35:53;;;;;;;25.02;14.23;;;;;;;7.36;78.04;96603.50;1672064;84;26556;-84
2021/08/26 02:38:20;;;;;;;29.70;15.95;;;;;;;7.36;78.05;96600.82;1672295;84;25762;-85
2021/08/26 02:40:46;;;;;;;28.65;16.12;;;;;;;7.39;78.09;96592.84;1685251;84;27208;-85
2021/08/26 02:43:13;;;;;;;22.07;14.68;;;;;;;7.45;78.09;96603.58;1672224;84;26418;-84
2021/08/26 02:45:40;;;;;;;22.50;14.05;;;;;;;7.52;78.09;96594.97;1672182;85;25838;-85
2021/08/26 02:48:06;;;;;;;24.30;14.80;;;;;;;7.57;78.08;96596.52;1672132;84;26275;-85
2021/08/26 02:50:33;;;;;;;23.75;14.03;;;;;;;7.63;77.94;96598.85;1672176;84;25802;-85
2021/08/26 02:52:59;;;;;;;29.80;15.03;;;;;;;7.65;77.76;96582.02;1672130;85;27469;-85
2021/08/26 02:55:26;;;;;;;26.48;13.70;;;;;;;7.67;77.75;96587.17;1672216;84;25819;-84
2021/08/26 02:57:53;;;;;;;22.52;13.03;;;;;;;7.69;77.82;96577.88;1672182;84;25813;-83
2021/08/26 03:00:19;;;;;;;26.20;15.05;;;;;;;7.63;77.73;96580.56;1672279;84;25960;-87
2021/08/26 03:02:46;;;;;;;22.67;13.78;;;;;;;7.54;77.90;96578.13;1672213;84;25323;-86
2021/08/26 03:05:12;;;;;;;20.68;13.83;;;;;;;7.47;78.08;96577.34;1672169;84;27623;-86
2021/08/26 03:07:39;;;;;;;20.72;12.85;;;;;;;7.44;78.22;96576.41;1672005;84;25759;-85
2021/08/26 03:10:06;;;;;;;25.68;14.07;;;;;;;7.45;78.34;96563.30;1672276;84;25768;-85
2021/08/26 03:12:32;;;;;;;25.35;14.73;;;;;;;7.47;78.26;96567.12;1672176;84;25898;-85
2021/08/26 03:14:59;;;;;;;20.45;12.93;;;;;;;7.51;78.28;96561.61;1672136;84;25763;-84
2021/08/26 03:17:26;;;;;;;24.98;12.90;;;;;;;7.51;78.24;96562.95;1672209;84;27385;-84
2021/08/26 03:19:53;;;;;;;26.87;12.35;;;;;;;7.50;78.25;96559.44;1664844;85;25891;-84
2021/08/26 03:22:19;;;;;;;19.87;12.03;;;;;;;7.53;78.31;96556.34;1665002;85;25799;-85
2021/08/26 03:24:46;;;;;;;20.60;13.10;;;;;;;7.51;78.24;96550.34;1665155;85;25768;-85
2021/08/26 03:27:13;;;;;;;25.05;14.20;;;;;;;7.50;78.28;96547.36;1665201;85;25719;-85
2021/08/26 03:29:39;;;;;;;21.82;14.03;;;;;;;7.51;78.41;96546.32;1665210;86;27527;-85
2021/08/26 03:32:06;;;;;;;21.02;12.65;;;;;;;7.53;78.39;96546.94;1665008;85;26309;-84
2021/08/26 03:34:33;;;;;;;21.85;13.43;;;;;;;7.54;78.40;96543.73;1664861;86;25821;-86
2021/08/26 03:36:59;;;;;;;20.85;13.15;;;;;;;7.59;78.57;96543.41;1665160;85;25858;-85
2021/08/26 03:39:26;;;;;;;25.72;13.85;;;;;;;7.57;78.55;96536.09;1664889;86;25727;-85
2021/08/26 03:41:53;;;;;;;26.75;15.60;;;;;;;7.62;78.60;96535.94;1664944;85;27599;-86
2021/08/26 03:44:19;;;;;;;26.65;15.53;;;;;;;7.66;78.71;96538.52;1671499;84;26415;-85
2021/08/26 03:46:46;;;;;;;27.82;16.05;;;;;;;7.63;78.77;96528.19;1679126;84;25714;-85
2021/08/26 03:49:12;;;;;;;24.12;14.80;;;;;;;7.66;78.78;96538.52;1666169;84;25876;-86
2021/08/26 03:51:39;;;;;;;26.62;15.03;;;;;;;7.71;78.91;96537.37;1678911;84;25787;-85
2021/08/26 03:54:05;;;;;;;24.02;12.98;;;;;;;7.75;78.93;96536.70;1665254;85;27386;-87
2021/08/26 03:56:32;;;;;;;20.35;13.20;;;;;;;7.79;79.03;96535.25;1665045;86;25810;-85
2021/08/26 03:58:59;;;;;;;25.30;13.70;;;;;;;7.80;78.96;96533.39;1664989;85;25288;-84
2021/08/26 04:01:26;;;;;;;29.85;13.50;;;;;;;7.81;79.00;96529.66;1665036;85;26195;-86
2021/08/26 04:03:53;;;;;;;28.73;15.60;;;;;;;7.83;78.95;96532.97;1666428;84;25806;-86
2021/08/26 04:06:19;;;;;;;24.27;14.35;;;;;;;7.89;78.94;96525.37;1671020;84;27864;-86
2021/08/26 04:08:46;;;;;;;27.37;15.88;;;;;;;7.90;79.05;96520.30;1665062;85;25750;-87
2021/08/26 04:11:12;;;;;;;26.85;15.65;;;;;;;7.89;79.16;96520.82;1668555;84;25735;-86
2021/08/26 04:13:39;;;;;;;22.87;13.45;;;;;;;7.95;79.22;96519.15;1643067;84;25733;-85
2021/08/26 04:16:05;;;;;;;23.83;13.85;;;;;;;8.02;79.19;96515.89;1665107;85;25753;-86
2021/08/26 04:18:32;;;;;;;25.48;14.47;;;;;;;8.08;79.24;96512.34;1667076;84;27395;-86
2021/08/26 04:21:00;;;;;;;24.82;13.53;;;;;;;8.16;79.35;96499.97;1672055;84;25340;-85
2021/08/26 04:23:26;;;;;;;27.48;14.35;;;;;;;8.25;79.39;96508.07;1672087;84;25804;-88
2021/08/26 04:25:53;;;;;;;29.27;16.02;;;;;;;8.30;79.25;96502.87;1653537;84;25891;-87
2021/08/26 04:28:20;;;;;;;29.60;15.90;;;;;;;8.37;79.27;96506.88;1671962;84;25807;-84
2021/08/26 04:30:46;;;;;;;26.68;14.05;;;;;;;8.46;79.25;96500.69;1672224;84;28408;-83
2021/08/26 04:33:13;;;;;;;29.00;15.53;;;;;;;8.55;79.23;96500.22;1671980;84;25930;-84
2021/08/26 04:35:39;;;;;;;31.25;15.68;;;;;;;8.62;79.12;96497.45;1671752;84;25367;-85
2021/08/26 04:38:06;;;;;;;27.22;16.17;;;;;;;8.67;79.04;96496.28;1672182;84;25790;-86
2021/08/26 04:40:33;;;;;;;25.50;14.75;;;;;;;8.78;79.09;96505.48;1672254;84;25652;-86
2021/08/26 04:42:59;;;;;;;26.48;15.15;;;;;;;8.85;79.25;96501.67;1688920;84;27287;-83
2021/08/26 04:45:26;;;;;;;23.75;14.43;;;;;;;8.94;79.28;96494.95;1672070;84;25811;-87
2021/08/26 04:47:52;;;;;;;25.08;14.07;;;;;;;9.01;79.13;96488.99;1672078;84;25883;-86
2021/08/26 04:50:19;;;;;;;27.95;15.70;;;;;;;9.10;78.96;96496.77;1672178;84;26680;-86
2021/08/26 04:52:46;;;;;;;29.55;16.05;;;;;;;9.16;78.90;96495.88;1672245;84;25854;-85
2021/08/26 04:55:13;;;;;;;27.32;15.08;;;;;;;9.25;78.87;96486.45;1672183;84;27422;-85
2021/08/26 04:57:39;;;;;;;28.20;15.03;;;;;;;9.32;78.90;96489.88;1688868;84;25745;-86
2021/08/26 05:00:07;;;;;;;28.23;14.40;;;;;;;9.39;78.83;96487.94;1672008;84;26318;-85
2021/08/26 05:02:34;;;;;;;27.67;14.10;;;;;;;9.44;78.88;96482.68;1678616;84;25792;-84
2021/08/26 05:05:01;;;;;;;24.25;13.62;;;;;;;9.52;78.88;96489.64;1679113;84;25840;-85
2021/08/26 05:07:27;;;;;;;23.52;12.70;;;;;;;9.57;78.90;96490.59;1672495;83;26761;-84
2021/08/26 05:09:54;;;;;;;23.18;13.83;;;;;;;9.63;78.94;96493.74;1672193;84;25747;-87
2021/08/26 05:12:20;;;;;;;30.08;14.13;;;;;;;9.68;78.72;96493.87;1672204;84;25688;-89
2021/08/26 05:14:47;;;;;;;23.30;13.83;;;;;;;9.68;78.52;96487.13;1672504;84;26662;-88
2021/08/26 05:17:14;;;;;;;26.80;14.13;;;;;;;9.72;78.53;96488.33;1672674;84;25714;-86
2021/08/26 05:19:40;;;;;;;28.35;13.43;;;;;;;9.73;78.45;96485.11;1667834;84;27363;-90
2021/08/26 05:22:07;;;;;;;26.10;13.20;;;;;;;9.78;78.41;96481.19;1664835;84;25755;-89
2021/08/26 05:24:33;;;;;;;24.37;13.45;;;;;;;9.83;78.53;96480.51;1665053;84;25804;-90
2021/08/26 05:27:00;;;;;;;21.12;12.15;;;;;;;9.87;78.45;96483.88;1665118;86;25701;-88
2021/08/26 05:29:27;;;;;;;26.05;13.10;;;;;;;9.91;78.43;96481.52;1664868;85;25778;-88
2021/08/26 05:31:53;;;;;;;23.57;13.53;;;;;;;9.93;78.29;96480.25;1664740;85;27543;-86
2021/08/26 05:34:20;;;;;;;23.65;13.38;;;;;;;10.00;78.19;96478.83;1664631;84;25845;-89
2021/08/26 05:36:47;;;;;;;22.10;13.05;;;;;;;10.06;78.09;96471.97;1664406;85;25786;-89
2021/08/26 05:39:13;;;;;;;23.38;14.07;;;;;;;10.14;77.95;96477.58;1664889;85;26539;-89
2021/08/26 05:41:44;;;;;;;22.25;13.00;;;;;;;10.21;77.85;96471.57;1664828;86;26254;-81
2021/08/26 05:44:08;;;;;;;21.48;14.30;;;;;;;10.28;77.75;96475.50;1663410;84;28150;-89
2021/08/26 05:46:35;;;;;;;22.27;13.30;;;;;;;10.31;77.62;96467.77;1664589;84;25756;-89
2021/08/26 05:49:02;;;;;;;22.17;12.60;;;;;;;10.38;77.46;96469.86;1664643;86;25784;-88
2021/08/26 05:51:28;;;;;;;22.80;12.93;;;;;;;10.45;77.36;96469.20;1664666;84;25818;-87
2021/08/26 05:53:55;;;;;;;21.10;12.20;;;;;;;10.53;77.05;96465.86;1664704;84;25724;-89
2021/08/26 05:56:21;;;;;;;17.73;11.35;;;;;;;10.60;76.89;96466.58;1664577;85;27432;-87
2021/08/26 05:58:48;;;;;;;21.30;12.50;;;;;;;10.66;76.64;96444.86;1664564;85;25971;-87
2021/08/26 06:01:15;;;;;;;18.52;11.88;;;;;;;10.74;76.74;96449.10;1664625;85;25720;-82
2021/08/26 06:03:41;;;;;;;22.20;12.07;;;;;;;10.80;76.78;96458.41;1664740;85;25672;-79
2021/08/26 06:06:08;;;;;;;19.42;12.50;;;;;;;10.86;76.88;96464.77;1664646;85;25776;-79
2021/08/26 06:08:34;;;;;;;21.73;12.45;;;;;;;10.90;77.00;96453.77;1664693;85;27445;-87
2021/08/26 06:11:01;;;;;;;22.73;12.43;;;;;;;10.93;76.71;96454.66;1664505;84;26395;-82
2021/08/26 06:13:28;;;;;;;19.73;11.78;;;;;;;11.01;76.65;96446.70;1664569;84;25806;-88
2021/08/26 06:15:54;;;;;;;21.07;12.82;;;;;;;11.08;76.51;96442.02;1665023;84;26519;-89
2021/08/26 06:18:21;;;;;;;21.35;12.53;;;;;;;11.15;76.22;96443.52;1664946;85;25694;-89
2021/08/26 06:20:49;;;;;;;22.25;11.83;;;;;;;11.22;76.22;96439.88;1671205;84;27460;-87
2021/08/26 06:23:16;;;;;;;18.82;11.43;;;;;;;11.29;76.34;96444.60;1672408;84;25891;-89
2021/08/26 06:25:43;;;;;;;18.00;11.53;;;;;;;11.33;76.19;96435.80;1672226;84;25820;-81
2021/08/26 06:28:09;;;;;;;18.57;11.73;;;;;;;11.40;76.18;96441.05;1672215;84;26296;-87
2021/08/26 06:30:36;;;;;;;15.72;11.20;;;;;;;11.46;75.99;96450.91;1672171;84;25772;-88
2021/08/26 06:33:04;;;;;;;19.32;11.08;;;;;;;11.51;76.02;96450.47;1672140;84;27426;-87
2021/08/26 06:35:32;;;;;;;17.80;11.55;;;;;;;11.58;75.97;96446.29;1672125;84;25716;-86
2021/08/26 06:37:59;;;;;;;20.32;10.53;;;;;;;11.66;75.94;96445.07;1671948;84;25769;-88
2021/08/26 06:40:26;;;;;;;17.32;10.35;;;;;;;11.75;75.69;96443.12;1672181;84;25662;-92
2021/08/26 06:42:52;;;;;;;18.20;10.98;;;;;;;11.79;75.56;96435.35;1672275;84;25790;-85
2021/08/26 06:45:19;;;;;;;19.98;11.40;;;;;;;11.85;75.47;96438.42;1672230;84;26752;-87
2021/08/26 06:47:45;;;;;;;20.08;11.97;;;;;;;11.89;75.42;96443.64;1672056;84;25816;-86
2021/08/26 06:50:13;;;;;;;16.67;11.08;;;;;;;11.87;75.60;96444.41;1672008;84;25768;-90
2021/08/26 06:52:39;;;;;;;18.65;10.23;;;;;;;11.90;75.47;96447.46;1672181;84;25791;-85
2021/08/26 06:55:07;;;;;;;17.75;11.08;;;;;;;11.92;75.46;96453.98;1671950;84;26415;-85
2021/08/26 06:57:33;;;;;;;18.70;11.78;;;;;;;11.90;75.71;96448.81;1672004;84;27433;-85
2021/08/26 07:00:00;;;;;;;20.65;11.45;;;;;;;11.92;75.65;96447.22;1672145;84;25708;-87
2021/08/26 07:02:26;;;;;;;15.70;10.80;;;;;;;11.92;75.54;96449.11;1672287;84;25835;-83
2021/08/26 07:04:53;;;;;;;22.62;10.95;;;;;;;11.90;75.72;96453.40;1672306;84;25834;-85
2021/08/26 07:07:20;;;;;;;18.05;11.10;;;;;;;11.91;75.80;96453.69;1672367;84;25773;-85
2021/08/26 07:09:47;;;;;;;18.10;11.45;;;;;;;11.90;75.52;96452.05;1671937;84;28527;-86
2021/08/26 07:12:13;;;;;;;18.25;10.75;;;;;;;11.90;75.62;96452.87;1672104;84;25985;-86
2021/08/26 07:14:40;;;;;;;19.62;11.22;;;;;;;11.87;75.79;96446.59;1672298;84;25670;-87
2021/08/26 07:17:07;;;;;;;18.10;11.35;;;;;;;11.85;75.97;96450.06;1672198;84;25791;-88
2021/08/26 07:19:33;;;;;;;20.72;11.12;;;;;;;11.82;75.85;96450.56;1670232;84;25734;-87
2021/08/26 07:22:00;;;;;;;17.40;11.15;;;;;;;11.83;75.95;96446.77;1664689;84;28216;-88
2021/08/26 07:24:26;;;;;;;18.87;10.68;;;;;;;11.86;75.76;96450.88;1664560;85;25314;-88
2021/08/26 07:26:53;;;;;;;20.70;11.35;;;;;;;11.89;76.04;96449.87;1664698;85;26319;-85
2021/08/26 07:29:19;;;;;;;17.57;10.93;;;;;;;11.92;76.28;96452.62;1664603;85;26324;-87
2021/08/26 07:31:46;;;;;;;18.42;11.43;;;;;;;11.89;76.38;96445.81;1665115;85;25839;-84
2021/08/26 07:34:13;;;;;;;20.90;11.30;;;;;;;11.94;76.53;96446.98;1664798;84;27569;-90
2021/08/26 07:36:40;;;;;;;16.55;11.55;;;;;;;11.97;76.49;96443.23;1664718;84;25735;-83
2021/08/26 07:39:06;;;;;;;19.80;10.93;;;;;;;12.02;76.64;96443.88;1664492;85;25744;-87
2021/08/26 07:41:33;;;;;;;17.65;11.05;;;;;;;12.05;76.52;96443.39;1664662;84;25858;-87
2021/08/26 07:44:00;;;;;;;20.10;11.12;;;;;;;12.09;76.26;96437.77;1664699;85;25737;-86
2021/08/26 07:46:26;;;;;;;19.30;11.48;;;;;;;12.12;76.44;96444.05;1654134;84;27433;-88
2021/08/26 07:48:53;;;;;;;16.48;10.93;;;;;;;12.17;76.68;96442.27;1671183;84;25848;-87
2021/08/26 07:51:19;;;;;;;16.82;11.03;;;;;;;12.19;76.73;96439.31;1664625;85;26475;-88
2021/08/26 07:53:46;;;;;;;18.05;12.18;;;;;;;12.21;76.92;96442.04;1664713;84;25838;-88
2021/08/26 07:56:12;;;;;;;17.65;11.03;;;;;;;12.26;77.22;96437.26;1664884;86;25425;-88
2021/08/26 07:58:39;;;;;;;17.70;10.48;;;;;;;12.30;77.20;96441.13;1664702;84;27424;-89
2021/08/26 08:01:06;;;;;;;18.62;11.60;;;;;;;12.34;77.44;96438.73;1664568;85;25696;-89
2021/08/26 08:03:32;;;;;;;18.77;12.05;;;;;;;12.41;77.47;96435.34;1670742;84;25811;-82
2021/08/26 08:06:01;;;;;;;18.73;11.38;;;;;;;12.46;77.12;96436.23;1675202;84;25727;-88
2021/08/26 08:08:28;;;;;;;15.98;9.93;;;;;;;12.50;76.95;96436.03;1646695;84;26005;-88
2021/08/26 08:10:54;;;;;;;16.87;10.78;;;;;;;12.53;76.62;96432.84;1664164;85;28109;-88
2021/08/26 08:13:21;;;;;;;18.90;11.20;;;;;;;12.56;76.54;96429.61;1664599;86;25995;-89
2021/08/26 08:15:48;;;;;;;18.20;10.35;;;;;;;12.61;76.04;96435.12;1680339;83;25674;-86
2021/08/26 08:18:14;;;;;;;19.05;11.68;;;;;;;12.62;75.77;96433.23;1664805;85;25768;-87
2021/08/26 08:20:42;;;;;;;18.42;10.70;;;;;;;12.65;76.14;96427.86;1667322;84;26589;-89
2021/08/26 08:23:09;;;;;;;17.10;11.00;;;;;;;12.66;76.35;96434.39;1665113;85;28280;-89
2021/08/26 08:25:36;;;;;;;17.77;11.65;;;;;;;12.70;76.53;96430.62;1672424;84;25792;-88
2021/08/26 08:28:13;;;;;;;17.45;10.78;;;;;;;12.71;76.60;96427.67;1665584;85;25872;-88
2021/08/26 08:30:41;;;;;;;19.85;11.55;;;;;;;12.71;76.64;96426.86;1665166;85;25886;-88
2021/08/26 08:33:08;;;;;;;17.82;11.45;;;;;;;12.73;76.66;96424.19;1665141;85;25831;-88
2021/08/26 08:35:35;;;;;;;16.55;10.40;;;;;;;12.81;76.22;96431.06;1665182;85;27547;-88
2021/08/26 08:38:01;;;;;;;22.40;11.65;;;;;;;12.86;76.35;96423.84;1664844;85;26717;-88
2021/08/26 08:40:28;;;;;;;18.07;11.10;;;;;;;12.90;76.35;96429.59;1665262;85;25700;-88
2021/08/26 08:42:55;;;;;;;20.08;10.82;;;;;;;12.93;76.14;96430.42;1665739;85;25752;-89
2021/08/26 08:45:22;;;;;;;19.07;10.88;;;;;;;12.97;76.00;96436.98;1665063;85;25735;-89
2021/08/26 08:47:51;;;;;;;18.30;11.50;;;;;;;12.98;75.94;96434.56;1665346;85;28140;-89
2021/08/26 08:50:26;;;;;;;24.07;12.03;;;;;;;12.95;75.57;96437.77;1670388;84;25896;-89
2021/08/26 08:52:54;;;;;;;16.50;11.48;;;;;;;12.97;75.82;96441.05;1673651;84;25796;-90
2021/08/26 08:55:21;;;;;;;20.45;10.75;;;;;;;13.00;75.61;96432.44;1673699;84;25767;-89
2021/08/26 08:57:48;;;;;;;17.67;10.78;;;;;;;13.06;75.78;96437.38;1665179;85;25967;-89
2021/08/26 09:00:17;;;;;;;21.62;11.50;;;;;;;13.11;75.72;96443.69;1665056;85;27509;-88
2021/08/26 09:02:44;;;;;;;17.90;11.95;;;;;;;13.17;75.50;96440.00;1664956;85;25942;-89
2021/08/26 09:05:11;;;;;;;19.20;12.50;;;;;;;13.23;75.71;96445.78;1665105;85;25988;-86
2021/08/26 09:07:38;;;;;;;19.05;11.55;;;;;;;13.31;75.92;96447.22;1665178;86;25808;-88
2021/08/26 09:10:07;;;;;;;17.20;11.30;;;;;;;13.36;75.52;96449.19;1674928;84;25750;-89
2021/08/26 09:12:46;;;;;;;18.67;11.43;;;;;;;13.42;75.57;96448.98;1675245;84;27419;-86
2021/08/26 09:15:17;;;;;;;20.72;11.95;;;;;;;13.50;75.57;96453.17;1663171;84;25824;-89
2021/08/26 09:17:45;;;;;;;19.95;12.80;;;;;;;13.56;75.36;96456.20;1670198;84;25849;-86
2021/08/26 09:20:19;;;;;;;19.23;11.70;;;;;;;13.66;75.42;96461.74;1666661;85;26381;-88
2021/08/26 09:22:47;;;;;;;19.00;11.85;;;;;;;13.74;75.34;96456.43;1673063;84;25307;-88
2021/08/26 09:25:24;;;;;;;16.25;11.20;;;;;;;13.81;75.46;96453.79;1687307;84;27437;-88
2021/08/26 09:27:51;;;;;;;19.23;11.97;;;;;;;13.90;75.22;96452.79;1672182;85;26559;-88
2021/08/26 09:30:20;;;;;;;20.48;11.78;;;;;;;13.99;75.12;96452.09;1672217;85;25819;-86
2021/08/26 09:32:59;;;;;;;20.08;11.45;;;;;;;14.06;75.07;96452.70;1672129;84;25796;-89
2021/08/26 09:35:31;;;;;;;19.95;12.45;;;;;;;14.14;75.03;96450.59;1672100;84;25778;-89
2021/08/26 09:38:02;;;;;;;19.80;11.50;;;;;;;14.19;75.27;96446.04;1671903;84;27489;-88
2021/08/26 09:40:34;;;;;;;16.77;11.30;;;;;;;14.23;74.92;96443.64;1671977;84;25739;-88
2021/08/26 09:43:05;;;;;;;18.95;11.65;;;;;;;14.27;74.54;96444.73;1668827;84;25811;-87
2021/08/26 09:45:41;;;;;;;16.52;10.98;;;;;;;14.33;74.53;96452.69;1672218;84;25744;-89
2021/08/26 09:48:13;;;;;;;18.45;10.85;;;;;;;14.41;74.49;96444.63;1672160;84;25821;-87
2021/08/26 09:50:52;;;;;;;16.00;11.15;;;;;;;14.49;74.40;96448.22;1672108;84;27632;-82
2021/08/26 09:53:36;;;;;;;19.80;11.70;;;;;;;14.56;74.28;96448.02;1672155;84;25247;-87
2021/08/26 09:56:07;;;;;;;16.67;10.32;;;;;;;14.60;74.13;96443.17;1671993;84;25748;-86
2021/08/26 09:58:36;;;;;;;27.82;10.98;;;;;;;14.64;74.10;96434.77;1672147;85;25797;-85
2021/08/26 10:01:18;;;;;;;26.77;11.10;;;;;;;14.65;73.84;96443.20;1672446;84;25736;-86
2021/08/26 10:03:44;;;;;;;17.53;10.23;;;;;;;14.68;73.82;96445.40;1672020;84;27656;-87
2021/08/26 10:06:13;;;;;;;19.70;11.38;;;;;;;14.67;73.72;96438.86;1671810;84;25830;-86
2021/08/26 10:08:43;;;;;;;19.98;10.45;;;;;;;14.72;73.78;96449.78;1689052;84;25750;-82
2021/08/26 10:11:11;;;;;;;17.92;10.55;;;;;;;14.70;73.89;96436.45;1681198;84;25858;-84
2021/08/26 10:13:39;;;;;;;16.12;10.00;;;;;;;14.70;74.25;96440.53;1676916;84;25745;-84
2021/08/26 10:16:06;;;;;;;15.58;11.18;;;;;;;14.70;73.92;96438.35;1672215;84;27404;-84
2021/08/26 10:18:35;;;;;;;27.85;11.60;;;;;;;14.71;73.96;96444.89;1672483;84;25945;-84
2021/08/26 10:21:06;;;;;;;18.52;9.58;;;;;;;14.71;73.81;96448.14;1669659;84;25919;-86
2021/08/26 10:23:31;;;;;;;37.55;11.57;;;;;;;14.70;73.79;96452.75;1665685;85;25908;-82
2021/08/26 10:26:02;;;;;;;17.10;11.05;;;;;;;14.66;73.94;96451.63;1666453;85;26423;-83
2021/08/26 10:28:28;;;;;;;18.05;10.55;;;;;;;14.62;73.79;96460.00;1664888;85;27591;-83
2021/08/26 10:30:55;;;;;;;15.68;9.80;;;;;;;14.55;73.76;96455.34;1672718;84;25795;-84
2021/08/26 10:33:26;;;;;;;15.25;9.83;;;;;;;14.49;73.79;96453.64;1676761;84;25691;-82
2021/08/26 10:36:03;;;;;;;16.17;10.60;;;;;;;14.43;73.72;96457.41;1666201;85;25849;-83
2021/08/26 10:38:37;;;;;;;15.43;10.38;;;;;;;14.39;73.85;96458.97;1663948;85;25874;-86
2021/08/26 10:41:28;;;;;;;15.20;10.18;;;;;;;14.36;73.87;96458.14;1665164;85;27529;-85
2021/08/26 10:43:58;;;;;;;13.08;9.00;;;;;;;14.34;74.11;96457.58;1665071;85;25303;-83
2021/08/26 10:46:54;;;;;;;15.45;9.95;;;;;;;14.28;73.98;96462.66;1665205;85;25774;-84
2021/08/26 10:49:23;;;;;;;17.48;9.88;;;;;;;14.25;74.12;96469.99;1665113;85;25765;-86
2021/08/26 10:51:53;;;;;;;16.32;9.25;;;;;;;14.16;74.12;96465.55;1665125;85;25844;-85
2021/08/26 10:54:34;;;;;;;17.23;8.75;;;;;;;14.15;74.18;96463.91;1665138;85;27394;-86
2021/08/26 10:57:29;;;;;;;15.40;8.80;;;;;;;14.13;74.30;96462.55;1665081;85;25848;-80
2021/08/26 10:59:56;;;;;;;11.88;8.03;;;;;;;14.10;74.24;96463.05;1658734;85;26482;-88
2021/08/26 11:02:42;;;;;;;11.83;7.37;;;;;;;14.06;74.01;96466.27;1665144;85;25792;-87
2021/08/26 11:05:36;;;;;;;11.05;7.22;;;;;;;14.03;74.05;96463.23;1664962;85;25719;-88
2021/08/26 11:08:29;;;;;;;10.03;6.55;;;;;;;14.01;74.09;96462.13;1649548;85;27431;-85
2021/08/26 11:11:00;;;;;;;12.28;7.47;;;;;;;14.01;73.94;96453.17;1665097;85;25855;-86
2021/08/26 11:13:32;;;;;;;12.50;7.95;;;;;;;14.03;74.21;96455.91;1665366;86;25732;-85
2021/08/26 11:16:26;;;;;;;10.03;6.62;;;;;;;14.06;74.56;96445.91;1665127;85;25740;-85
2021/08/26 11:18:56;;;;;;;9.50;6.83;;;;;;;14.09;74.19;96445.12;1665255;85;25757;-86
2021/08/26 11:21:46;;;;;;;13.35;7.30;;;;;;;14.11;74.26;96445.70;1668050;84;27595;-87
2021/08/26 11:24:26;;;;;;;11.08;6.95;;;;;;;14.09;74.29;96442.41;1667099;84;26302;-82
2021/08/26 11:27:04;;;;;;;10.15;6.58;;;;;;;14.13;74.51;96442.19;1672399;84;25766;-87
2021/08/26 11:29:35;;;;;;;10.35;7.45;;;;;;;14.10;74.56;96439.45;1672194;84;25783;-87
2021/08/26 11:32:07;;;;;;;12.47;7.15;;;;;;;14.09;74.88;96445.12;1672430;84;25510;-86